Saint Lawrence, Pennsylvania
Current Conditions -  °F | °C
As of 5:54 PM on Sunday 21 Dec 2014 (Local Time) from KRDG Reporting Station
Clear Clear  
Wind Chill: 30°   Ceiling: Unl
Heat Index: 30°   Visibility: 10mi
Dew Point: 21°   Wind: 3mph
Humidity: 69%   Direction: 260°W
Pressure: 30.32"   Gusts: NA
Location:  40.3351°N, 75.8521°W
Report Text: KRDG 212254Z AUTO 26003KT 10SM CLR M01/M06 A3032 RMK AO2 SLP276 T10111061
Loading
Personal Weather Stations






























Interactive Weather Map New forecast layout! Learn more

10-Day Weather Forecast

Advertisements
Track Severe Weather on mobile